Terminal Aerodrome Forecast
Issued by NWS Jacksonville, FL

Home | Current Version | Previous Version | Text Only | Print | Product List | Glossary On
Versions: 1 2 3 4 5 6 7 8 9 10 11 12
000
FTUS42 KJAX 272300 RRA
TAFSSI
TAF
KSSI 272348Z 2800/2824 05006KT P6SM SCT030
     FM280600 05003KT 5SM BR BKN020
     FM280900 VRB02KT 2SM BR BKN007
     FM281400 21005KT P6SM BKN015
     FM281900 22006KT P6SM BKN025=

USA.gov is the U.S. government's official web portal to all federal, state and local government web resources and services.